Point Hope, AK

9:03 AM AKDT on June 29, 2017 (GMT -0800)
Point Hope

Weather History for PAPO - April, 2014

Change the Weather History Date:

Thursday, April 17, 2014

  Actual Average Record
Temperature  
Mean Temperature 19 °F -  
Max Temperature 23 °F 17 °F 35 °F (2017)
Min Temperature 15 °F 6 °F -16 °F (1997)
Degree Days  
Heating Degree Days 46    
Moisture  
Dew Point -25 °F    
Average Humidity 12    
Maximum Humidity 14    
Minimum Humidity 12    
Precipitation  
Precipitation 0.00 in - - ()
Sea Level Pressure  
Sea Level Pressure 29.79 in    
Wind  
Wind Speed 16 mph (NNE)    
Max Wind Speed 22 mph    
Max Gust Speed 26 mph    
Visibility 10 miles    
Events      
Averages and records for this station are not official NWS values.
T = Trace of Precipitation, MM = Missing Value Source: NWS Daily Summary

Daily Weather History Graph

Daily Weather History Graph

Search for Another Location

Airport or City:

Trip Planner

Search our weather history database for the weather conditions in past years. The results will help you decide how hot, cold, wet, or windy it might be!

Date:

Astronomy

Apr. 17, 2014 Rise Set
Actual Time 7:03 AM AKDT 11:12 PM AKDT
Civil Twilight 5:49 AM AKDT 12:28 AM AKDT
Nautical Twilight 3:39 AM AKDT 2:34 AM AKDT
Astronomical Twilight Sun does not set Sun does not set
Moon 2:07 AM AKDT (4/17) 7:39 AM AKDT (4/17)
Length of Visible Light 18h 38m
Length of Day
16h 08m
Waning Gibbous, 93% of the Moon is Illuminated
Apr 17
Waning Gibbous
Apr 21
Last Quarter
Apr 28
New
May 6
First Quarter
May 14
Full

Hourly Weather History & Observations

Time (AKDT) Temp. Windchill Dew Point Humidity Pressure Visibility Wind Dir Wind Speed Gust Speed Precip Events Conditions
12:16 AM 17.6 °F 3.2 °F -27.4 °F 12% 29.94 in 10.0 mi NNE 15.0 mph - N/A   Partly Cloudy
12:36 AM 17.6 °F 5.0 °F -27.4 °F 12% 29.94 in 10.0 mi NNE 11.5 mph - N/A   Mostly Cloudy
12:56 AM 17.6 °F 5.0 °F -27.4 °F 12% 29.94 in 10.0 mi NNE 11.5 mph - N/A   Overcast
1:16 AM 17.6 °F 4.3 °F -27.4 °F 12% 29.93 in 10.0 mi NNE 12.7 mph - N/A   Scattered Clouds
1:36 AM 17.6 °F 3.2 °F -27.4 °F 12% 29.93 in 10.0 mi NNE 15.0 mph - N/A   Mostly Cloudy
1:56 AM 17.6 °F 2.7 °F -25.6 °F 13% 29.93 in 10.0 mi NNE 16.1 mph - N/A   Overcast
2:16 AM 17.6 °F 5.7 °F -27.4 °F 12% 29.92 in 10.0 mi NNE 10.4 mph - N/A   Mostly Cloudy
2:56 AM 17.6 °F 2.2 °F -27.4 °F 12% 29.91 in 10.0 mi NNE 17.3 mph - N/A   Partly Cloudy
3:16 AM 17.6 °F 2.2 °F -27.4 °F 12% 29.91 in 10.0 mi NNE 17.3 mph - N/A   Clear
3:36 AM 17.6 °F 2.7 °F -27.4 °F 12% 29.90 in 10.0 mi NNE 16.1 mph - N/A   Clear
3:56 AM 17.6 °F 1.7 °F -27.4 °F 12% 29.89 in 10.0 mi NNE 18.4 mph - N/A   Clear
4:16 AM 17.6 °F 0.9 °F -27.4 °F 12% 29.88 in 10.0 mi North 20.7 mph - N/A   Clear
4:36 AM 17.6 °F 3.2 °F -27.4 °F 12% 29.88 in 10.0 mi North 15.0 mph - N/A   Clear
4:56 AM 17.6 °F 3.2 °F -27.4 °F 12% 29.88 in 10.0 mi NNE 15.0 mph - N/A   Clear
5:16 AM 15.8 °F 2.1 °F -27.4 °F 13% 29.87 in 10.0 mi NNE 12.7 mph - N/A   Clear
5:56 AM 17.6 °F 2.7 °F -27.4 °F 12% 29.86 in 10.0 mi NNE 16.1 mph - N/A   Clear
6:16 AM 17.6 °F 3.7 °F -27.4 °F 12% 29.86 in 10.0 mi NNE 13.8 mph - N/A   Clear
6:36 AM 17.6 °F 5.0 °F -27.4 °F 12% 29.85 in 10.0 mi NNE 11.5 mph - N/A   Clear
6:56 AM 17.6 °F 2.7 °F -27.4 °F 12% 29.84 in 10.0 mi NNE 16.1 mph - N/A   Clear
7:16 AM 17.6 °F 4.3 °F -27.4 °F 12% 29.84 in 10.0 mi North 12.7 mph - N/A   Clear
7:36 AM 17.6 °F 5.0 °F -27.4 °F 12% 29.84 in 10.0 mi NNE 11.5 mph - N/A   Clear
8:16 AM 17.6 °F 4.3 °F -27.4 °F 12% 29.83 in 10.0 mi NNE 12.7 mph - N/A   Clear
8:36 AM 17.6 °F 3.7 °F -27.4 °F 12% 29.82 in 10.0 mi NNE 13.8 mph - N/A   Clear
8:56 AM 17.6 °F 3.7 °F -25.6 °F 13% 29.82 in 10.0 mi NNE 13.8 mph - N/A   Clear
9:16 AM 19.4 °F 5.0 °F -25.6 °F 12% 29.81 in 10.0 mi NNE 16.1 mph - N/A   Clear
9:36 AM 19.4 °F 6.0 °F -25.6 °F 12% 29.81 in 10.0 mi NNE 13.8 mph - N/A   Clear
9:56 AM 19.4 °F 6.6 °F -25.6 °F 12% 29.81 in 10.0 mi NNE 12.7 mph - N/A   Clear
10:16 AM 19.4 °F 5.5 °F -25.6 °F 12% 29.80 in 10.0 mi NNE 15.0 mph - N/A   Clear
10:36 AM 19.4 °F 7.2 °F -25.6 °F 12% 29.80 in 10.0 mi NNE 11.5 mph - N/A   Clear
10:56 AM 19.4 °F 4.5 °F -25.6 °F 12% 29.79 in 10.0 mi NNE 17.3 mph - N/A   Clear
11:16 AM 19.4 °F 4.5 °F -25.6 °F 12% 29.79 in 10.0 mi NNE 17.3 mph - N/A   Clear
11:36 AM 19.4 °F 3.6 °F -25.6 °F 12% 29.78 in 10.0 mi NNE 19.6 mph - N/A   Clear
11:56 AM 19.4 °F 4.5 °F -25.6 °F 12% 29.78 in 7.0 mi NNE 17.3 mph - N/A   Clear
12:16 PM 19.4 °F 3.6 °F -25.6 °F 12% 29.77 in 10.0 mi NNE 19.6 mph - N/A   Clear
12:36 PM 19.4 °F 4.1 °F -23.8 °F 14% 29.77 in 10.0 mi NNE 18.4 mph - N/A   Clear
12:56 PM 19.4 °F 4.1 °F -23.8 °F 14% 29.77 in 10.0 mi NNE 18.4 mph - N/A   Clear
1:16 PM 21.2 °F 6.4 °F -23.8 °F 13% 29.77 in 10.0 mi NNE 18.4 mph - N/A   Clear
1:36 PM 21.2 °F 6.8 °F -23.8 °F 13% 29.76 in 9.0 mi NNE 17.3 mph - N/A   Clear
1:56 PM 21.2 °F 6.8 °F -23.8 °F 13% 29.76 in 10.0 mi NNE 17.3 mph - N/A   Clear
2:16 PM 21.2 °F 6.4 °F -23.8 °F 13% 29.76 in 10.0 mi NNE 18.4 mph 23.0 mph N/A   Clear
2:36 PM 21.2 °F 5.2 °F -23.8 °F 13% 29.74 in 6.0 mi NNE 21.9 mph - N/A   Clear
2:56 PM 21.2 °F 5.2 °F -23.8 °F 13% 29.74 in 9.0 mi NNE 21.9 mph 26.5 mph N/A   Clear
3:16 PM 23.0 °F 9.2 °F -23.8 °F 12% 29.74 in 10.0 mi NNE 17.3 mph 21.9 mph N/A   Clear
3:36 PM 23.0 °F 8.7 °F -22.0 °F 13% 29.73 in 10.0 mi NNE 18.4 mph - N/A   Clear
3:56 PM 23.0 °F 8.7 °F -22.0 °F 13% 29.73 in 10.0 mi NNE 18.4 mph - N/A   Clear
4:16 PM 23.0 °F 7.6 °F -22.0 °F 13% 29.72 in 9.0 mi NNE 21.9 mph - N/A   Clear
4:36 PM 23.0 °F 9.6 °F -22.0 °F 13% 29.73 in 10.0 mi NNE 16.1 mph - N/A   Clear
4:56 PM 23.0 °F 8.0 °F -22.0 °F 13% 29.72 in 10.0 mi NNE 20.7 mph - N/A   Clear
5:16 PM 23.0 °F 8.0 °F -22.0 °F 13% 29.71 in 5.0 mi NNE 20.7 mph - N/A   Clear
5:36 PM 23.0 °F 7.6 °F -23.8 °F 12% 29.71 in 10.0 mi NNE 21.9 mph - N/A   Clear
5:56 PM 23.0 °F 8.0 °F -23.8 °F 12% 29.71 in 10.0 mi NNE 20.7 mph - N/A   Clear
6:16 PM 23.0 °F 7.6 °F -23.8 °F 12% 29.70 in 10.0 mi NNE 21.9 mph 26.5 mph N/A   Clear
6:36 PM 21.2 °F 6.0 °F -23.8 °F 13% 29.70 in 10.0 mi NNE 19.6 mph - N/A   Clear
6:56 PM 21.2 °F 5.2 °F -23.8 °F 13% 29.69 in 10.0 mi NNE 21.9 mph - N/A   Clear
7:16 PM 21.2 °F 5.6 °F -23.8 °F 13% 29.69 in 10.0 mi NNE 20.7 mph - N/A   Clear
7:36 PM 21.2 °F 6.8 °F -23.8 °F 13% 29.68 in 10.0 mi NNE 17.3 mph - N/A   Clear
7:56 PM 21.2 °F 6.0 °F -23.8 °F 13% 29.68 in 10.0 mi NNE 19.6 mph - N/A   Clear
8:16 PM 19.4 °F 3.2 °F -23.8 °F 14% 29.68 in 10.0 mi NNE 20.7 mph - N/A   Clear
8:36 PM 19.4 °F 3.2 °F -23.8 °F 14% 29.67 in 10.0 mi NNE 20.7 mph - N/A   Clear
8:56 PM 19.4 °F 3.2 °F -25.6 °F 12% 29.67 in 10.0 mi NNE 20.7 mph - N/A   Clear
9:16 PM 19.4 °F 3.6 °F -25.6 °F 12% 29.67 in 10.0 mi NNE 19.6 mph - N/A   Clear
9:36 PM 17.6 °F 2.2 °F -25.6 °F 13% 29.67 in 10.0 mi NNE 17.3 mph - N/A   Clear
9:56 PM 17.6 °F 4.3 °F -25.6 °F 13% 29.67 in 10.0 mi NNE 12.7 mph - N/A   Clear
10:36 PM 17.6 °F 3.2 °F -25.6 °F 13% 29.67 in 10.0 mi NNE 15.0 mph - N/A   Clear
10:56 PM 17.6 °F 1.7 °F -27.4 °F 12% 29.66 in 10.0 mi North 18.4 mph - N/A   Clear
11:36 PM 15.8 °F 0.3 °F -27.4 °F 13% 29.66 in 10.0 mi North 16.1 mph - N/A   Clear